This is the latest recevied weather packets stored in our database for station/object DM8MH-13. If no packets are shown the sender has not sent any weather packets the latest 10 day(s).
| Time | Temp. | Humidity | Pressure | Rain* | Wind** | Luminosity | Snow |
|---|---|---|---|---|---|---|---|
| 1777748473 | 20.56° C | 43% | 1015.2 hPa | 0 mm | - | 0 W/m² | - |
| 1777747873 | 21.11° C | 44% | 1015.1 hPa | 0 mm | - | 0 W/m² | - |
| 1777747273 | 21.11° C | 45% | 1015 hPa | 0 mm | - | 0 W/m² | - |
| 1777746674 | 22.22° C | 43% | 1015 hPa | 0 mm | - | 7 W/m² | - |
| 1777746074 | 23.33° C | 41% | 1015.1 hPa | 0 mm | - | 13 W/m² | - |
| 1777745473 | 24.44° C | 37% | 1015 hPa | 0 mm | - | 24 W/m² | - |
| 1777744873 | 25° C | 37% | 1015 hPa | 0 mm | - | 32 W/m² | - |
| 1777744273 | 26.11° C | 36% | 1015.1 hPa | 0 mm | - | 45 W/m² | - |
| 1777743673 | 26.67° C | 33% | 1015.1 hPa | 0 mm | - | 59 W/m² | - |
| 1777743074 | 27.78° C | 30% | 1015.1 hPa | 0 mm | - | 107 W/m² | - |
| 1777742473 | 27.78° C | 29% | 1015.1 hPa | 0 mm | - | 139 W/m² | - |
| 1777741873 | 27.22° C | 29% | 1015.3 hPa | 0 mm | - | 150 W/m² | - |
| 1777741273 | 27.78° C | 27% | 1015.3 hPa | 0 mm | - | 150 W/m² | - |
| 1777740673 | 27.78° C | 28% | 1015.3 hPa | 0 mm | - | 190 W/m² | - |
| 1777740073 | 27.78° C | 29% | 1015.4 hPa | 0 mm | - | 196 W/m² | - |
| 1777739474 | 27.78° C | 27% | 1015.6 hPa | 0 mm | - | 244 W/m² | - |
| 1777738873 | 28.33° C | 27% | 1015.7 hPa | 0 mm | - | 261 W/m² | - |
| 1777738273 | 28.33° C | 26% | 1015.7 hPa | 0 mm | - | 309 W/m² | - |
| 1777737673 | 28.33° C | 26% | 1015.9 hPa | 0 mm | - | 311 W/m² | - |
| 1777737073 | 28.33° C | 26% | 1016.1 hPa | 0 mm | - | 355 W/m² | - |
| 1777736473 | 28.33° C | 28% | 1016.2 hPa | 0 mm | - | 393 W/m² | - |
| 1777735874 | 28.33° C | 27% | 1016.3 hPa | 0 mm | - | 434 W/m² | - |
| 1777735273 | 28.33° C | 28% | 1016.3 hPa | 0 mm | - | 463 W/m² | - |
| 1777734673 | 28.33° C | 28% | 1016.3 hPa | 0 mm | - | 492 W/m² | - |
| 1777734073 | 28.33° C | 28% | 1016.5 hPa | 0 mm | - | 509 W/m² | - |
* Rain latest hour (hover to see other rain measurements)
** Current wind speed in m/s (hover to see current wind gust speed)